createdAt,value
2023-01-05T00:00:46.612Z,101099.75
2023-01-05T00:03:12.946Z,101098.91
2023-01-05T00:05:39.287Z,101101.97
2023-01-05T00:08:05.728Z,101085.47
2023-01-05T00:10:50.763Z,101101.34
2023-01-05T00:13:35.916Z,101100.84
2023-01-05T00:16:21.008Z,101106.09
2023-01-05T00:19:05.891Z,101099.63
2023-01-05T00:21:58.515Z,101102.34
2023-01-05T00:24:25.068Z,101100.84
2023-01-05T00:26:51.436Z,101104.78
2023-01-05T00:29:17.760Z,101109.34
2023-01-05T00:31:44.224Z,101120.84
2023-01-05T00:34:10.565Z,101141.03
2023-01-05T00:36:37.048Z,101134.59
2023-01-05T00:39:03.460Z,101141.31
2023-01-05T00:41:30.002Z,101128.13
2023-01-05T00:43:56.331Z,101129.53
2023-01-05T00:46:22.700Z,101133.63
2023-01-05T00:48:49.089Z,101131.56
2023-01-05T00:51:15.476Z,101135.31
2023-01-05T00:53:41.831Z,101126.38
2023-01-05T00:56:08.202Z,101131.97
2023-01-05T00:58:34.544Z,101118.03
2023-01-05T01:01:01.180Z,101113.66
2023-01-05T01:03:27.658Z,101116.34
2023-01-05T01:06:00.380Z,101119.44
2023-01-05T01:08:26.716Z,101108.41
2023-01-05T01:10:53.130Z,101114.69
2023-01-05T01:13:19.506Z,101114.38
2023-01-05T01:15:45.850Z,101123.84
2023-01-05T01:18:12.165Z,101121.50
2023-01-05T01:20:38.931Z,101129.97
2023-01-05T01:23:05.353Z,101118.78
2023-01-05T01:25:31.700Z,101118.13
2023-01-05T01:27:58.097Z,101121.00
2023-01-05T01:30:24.515Z,101126.91
2023-01-05T01:32:50.939Z,101122.84
2023-01-05T01:35:17.261Z,101129.31
2023-01-05T01:37:43.628Z,101128.66
2023-01-05T01:40:10.235Z,101133.06
2023-01-05T01:42:36.804Z,101134.09
2023-01-05T01:45:15.534Z,101133.91
2023-01-05T01:47:43.851Z,101129.31
2023-01-05T01:50:15.648Z,101135.75
2023-01-05T01:52:43.072Z,101123.91
2023-01-05T01:55:10.337Z,101122.84
2023-01-05T01:57:36.963Z,101133.06
2023-01-05T02:00:05.404Z,101131.38
2023-01-05T02:02:31.817Z,101134.72
2023-01-05T02:05:01.275Z,101132.19
2023-01-05T02:07:29.966Z,101126.97
2023-01-05T02:09:56.295Z,101126.31
2023-01-05T02:12:30.063Z,101141.53
2023-01-05T02:15:08.336Z,101139.69
2023-01-05T02:17:40.650Z,101135.09
2023-01-05T02:20:22.099Z,101141.19
2023-01-05T02:23:16.230Z,101136.97
2023-01-05T02:25:54.763Z,101149.00
2023-01-05T02:28:41.354Z,101132.75
2023-01-05T02:31:17.104Z,101135.09
2023-01-05T02:33:54.918Z,101136.13
2023-01-05T02:36:28.538Z,101140.22
2023-01-05T02:39:01.070Z,101151.69
2023-01-05T02:41:30.533Z,101158.81
2023-01-05T02:43:57.699Z,101164.59
2023-01-05T02:46:24.108Z,101158.81
2023-01-05T02:48:52.007Z,101170.84
2023-01-05T02:51:23.247Z,101160.84
2023-01-05T02:53:57.072Z,101157.13
2023-01-05T02:56:25.655Z,101164.09
2023-01-05T02:58:54.885Z,101161.22
2023-01-05T03:01:26.907Z,101172.41
2023-01-05T03:04:14.198Z,101164.97
2023-01-05T03:06:47.968Z,101159.91
2023-01-05T03:09:20.025Z,101163.47
2023-01-05T03:12:25.261Z,101158.22
2023-01-05T03:14:57.698Z,101166.53
2023-01-05T03:17:32.183Z,101167.34
2023-01-05T03:19:58.629Z,101151.97
2023-01-05T03:22:45.549Z,101168.56
2023-01-05T03:25:32.038Z,101164.66
2023-01-05T03:28:17.573Z,101168.56
2023-01-05T03:31:10.826Z,101171.09
2023-01-05T03:34:17.812Z,101165.69
2023-01-05T03:36:47.499Z,101165.69
2023-01-05T03:39:15.338Z,101166.03
2023-01-05T03:41:41.954Z,101171.28
2023-01-05T03:44:08.457Z,101174.84
2023-01-05T03:46:35.024Z,101173.63
2023-01-05T03:49:01.479Z,101171.63
2023-01-05T03:51:27.827Z,101171.00
2023-01-05T03:53:54.248Z,101167.72
2023-01-05T03:56:20.525Z,101162.28
2023-01-05T03:58:46.858Z,101167.06
2023-01-05T04:01:13.267Z,101173.13
2023-01-05T04:03:40.703Z,101181.44
2023-01-05T04:06:07.258Z,101174.69
2023-01-05T04:08:33.556Z,101186.19
2023-01-05T04:11:16.916Z,101183.13
2023-01-05T04:13:43.427Z,101178.94
2023-01-05T04:16:11.531Z,101187.06
2023-01-05T04:18:37.954Z,101177.59
2023-01-05T04:21:04.430Z,101180.97
2023-01-05T04:23:30.914Z,101178.44
2023-01-05T04:25:57.320Z,101196.84
2023-01-05T04:28:23.703Z,101198.88
2023-01-05T04:30:51.339Z,101193.00
2023-01-05T04:33:17.943Z,101189.44
2023-01-05T04:35:44.346Z,101182.63
2023-01-05T04:38:10.991Z,101182.63
2023-01-05T04:40:37.464Z,101189.09
2023-01-05T04:43:03.968Z,101192.81
2023-01-05T04:45:32.783Z,101185.06
2023-01-05T04:47:59.146Z,101176.25
2023-01-05T04:50:25.576Z,101177.13
2023-01-05T04:52:51.948Z,101188.47
2023-01-05T04:55:18.393Z,101182.88
2023-01-05T04:57:44.773Z,101192.50
2023-01-05T05:00:11.452Z,101189.16
2023-01-05T05:02:37.941Z,101199.59
2023-01-05T05:05:04.522Z,101196.72
2023-01-05T05:07:30.899Z,101188.78
2023-01-05T05:09:57.256Z,101188.59
2023-01-05T05:12:23.551Z,101202.13
2023-01-05T05:14:49.870Z,101194.19
2023-01-05T05:17:16.356Z,101195.91
2023-01-05T05:19:43.179Z,101197.56
2023-01-05T05:22:09.676Z,101194.19
2023-01-05T05:24:35.989Z,101192.50
2023-01-05T05:27:02.354Z,101204.66
2023-01-05T05:29:28.690Z,101196.88
2023-01-05T05:31:55.179Z,101203.16
2023-01-05T05:34:21.529Z,101209.44
2023-01-05T05:36:48.277Z,101208.09
2023-01-05T05:39:15.250Z,101205.56
2023-01-05T05:41:42.006Z,101216.22
2023-01-05T05:44:08.656Z,101214.16
2023-01-05T05:46:35.328Z,101217.41
2023-01-05T05:49:01.680Z,101230.41
2023-01-05T05:51:28.118Z,101236.50
2023-01-05T05:53:54.435Z,101241.25
2023-01-05T05:56:21.071Z,101243.78
2023-01-05T05:58:47.437Z,101244.63
2023-01-05T06:01:13.899Z,101243.59
2023-01-05T06:03:40.349Z,101242.56
2023-01-05T06:06:06.849Z,101241.25
2023-01-05T06:08:33.253Z,101248.31
2023-01-05T06:10:59.602Z,101250.56
2023-01-05T06:13:25.980Z,101247.19
2023-01-05T06:15:52.752Z,101252.78
2023-01-05T06:18:19.119Z,101258.00
2023-01-05T06:20:45.902Z,101265.31
2023-01-05T06:23:12.359Z,101262.78
2023-01-05T06:25:38.770Z,101269.00
2023-01-05T06:28:05.156Z,101255.47
2023-01-05T06:30:31.813Z,101264.03
2023-01-05T06:32:58.199Z,101268.06
2023-01-05T06:35:24.519Z,101274.84
2023-01-05T06:37:50.881Z,101277.56
2023-01-05T06:40:17.296Z,101278.38
2023-01-05T06:42:43.667Z,101274.50
2023-01-05T06:45:11.908Z,101277.38
2023-01-05T06:47:38.257Z,101275.84
2023-01-05T06:50:05.004Z,101286.84
2023-01-05T06:52:36.411Z,101290.94
2023-01-05T06:55:03.572Z,101296.19
2023-01-05T06:57:30.004Z,101299.75
2023-01-05T06:59:56.372Z,101294.16
2023-01-05T07:02:22.792Z,101291.28
2023-01-05T07:05:04.161Z,101297.34
2023-01-05T07:07:30.524Z,101306.38
2023-01-05T07:09:56.907Z,101279.72
2023-01-05T07:12:23.337Z,101304.66
2023-01-05T07:14:54.355Z,101312.44
2023-01-05T07:17:23.753Z,101310.59
2023-01-05T07:19:50.084Z,101319.72
2023-01-05T07:22:16.389Z,101323.94
2023-01-05T07:24:42.743Z,101320.22
2023-01-05T07:27:09.985Z,101320.56
2023-01-05T07:29:37.036Z,101323.09
2023-01-05T07:32:03.714Z,101329.53
2023-01-05T07:34:30.194Z,101336.81
2023-01-05T07:36:56.559Z,101344.75
2023-01-05T07:39:23.047Z,101337.66
2023-01-05T07:41:49.714Z,101335.59
2023-01-05T07:44:16.760Z,101343.38
2023-01-05T07:46:43.235Z,101354.22
2023-01-05T07:49:09.597Z,101349.81
2023-01-05T07:51:37.028Z,101349.28
2023-01-05T07:54:03.458Z,101352.34
2023-01-05T07:56:29.846Z,101349.81
2023-01-05T07:58:56.223Z,101364.38
2023-01-05T08:01:22.599Z,101360.34
2023-01-05T08:03:49.114Z,101366.25
2023-01-05T08:06:17.650Z,101366.41
2023-01-05T08:08:44.113Z,101375.53
2023-01-05T08:11:15.364Z,101368.44
2023-01-05T08:14:00.400Z,101379.56
2023-01-05T08:16:32.380Z,101379.94
2023-01-05T08:18:59.503Z,101386.06
2023-01-05T08:21:26.532Z,101384.84
2023-01-05T08:23:59.154Z,101377.41
2023-01-05T08:26:25.555Z,101388.06
2023-01-05T08:28:52.178Z,101374.13
2023-01-05T08:31:20.415Z,101383.97
2023-01-05T08:33:46.945Z,101380.25
2023-01-05T08:36:14.808Z,101389.22
2023-01-05T08:38:47.962Z,101388.03
2023-01-05T08:41:18.455Z,101401.06
2023-01-05T08:43:49.164Z,101392.56
2023-01-05T08:46:15.734Z,101395.47
2023-01-05T08:48:42.129Z,101396.66
2023-01-05T08:51:08.434Z,101400.53
2023-01-05T08:53:35.049Z,101405.13
2023-01-05T08:56:02.016Z,101401.22
2023-01-05T08:58:28.557Z,101405.78
2023-01-05T09:00:55.064Z,101406.28
2023-01-05T09:03:21.486Z,101413.19
2023-01-05T09:05:47.894Z,101407.66
2023-01-05T09:08:14.240Z,101415.59
2023-01-05T09:10:40.566Z,101408.13
2023-01-05T09:13:06.882Z,101412.03
2023-01-05T09:15:34.998Z,101416.59
2023-01-05T09:18:01.454Z,101424.56
2023-01-05T09:20:27.903Z,101429.47
2023-01-05T09:22:54.377Z,101434.69
2023-01-05T09:25:20.680Z,101425.25
2023-01-05T09:27:47.007Z,101437.63
2023-01-05T09:30:15.600Z,101427.78
2023-01-05T09:32:41.937Z,101441.16
2023-01-05T09:35:08.605Z,101441.31
2023-01-05T09:37:34.933Z,101443.19
2023-01-05T09:40:01.252Z,101447.19
2023-01-05T09:42:30.930Z,101448.00
2023-01-05T09:45:00.070Z,101453.44
2023-01-05T09:47:31.910Z,101466.81
2023-01-05T09:49:59.496Z,101456.25
2023-01-05T09:52:26.312Z,101465.88
2023-01-05T09:54:52.637Z,101471.69
2023-01-05T09:57:24.042Z,101475.91
2023-01-05T09:59:52.221Z,101479.28
2023-01-05T10:02:36.930Z,101487.09
2023-01-05T10:05:05.287Z,101487.09
2023-01-05T10:07:36.020Z,101489.28
2023-01-05T10:10:05.925Z,101494.84
2023-01-05T10:13:00.757Z,101487.22
2023-01-05T10:15:27.522Z,101481.81
2023-01-05T10:17:54.080Z,101491.47
2023-01-05T10:20:32.231Z,101494.84
2023-01-05T10:23:08.495Z,101496.38
2023-01-05T10:25:34.983Z,101486.41
2023-01-05T10:28:01.343Z,101490.25
2023-01-05T10:30:46.477Z,101488.72
2023-01-05T10:33:27.619Z,101490.72
2023-01-05T10:36:28.031Z,101499.56
2023-01-05T10:39:18.571Z,101496.16
2023-01-05T10:41:52.945Z,101499.91
2023-01-05T10:44:38.027Z,101494.47
2023-01-05T10:47:08.489Z,101492.94
2023-01-05T10:49:34.892Z,101501.22
2023-01-05T10:52:01.499Z,101500.19
2023-01-05T10:54:33.863Z,101499.50
2023-01-05T10:57:19.176Z,101499.88
2023-01-05T10:59:54.474Z,101505.94
2023-01-05T11:02:21.172Z,101504.28
2023-01-05T11:04:48.540Z,101505.09
2023-01-05T11:07:14.967Z,101511.03
2023-01-05T11:09:43.416Z,101479.25
2023-01-05T11:12:20.303Z,101513.03
2023-01-05T11:14:57.873Z,101502.22
2023-01-05T11:17:29.053Z,101511.03
2023-01-05T11:19:56.893Z,101516.22
2023-01-05T11:22:28.256Z,101511.94
2023-01-05T11:24:54.549Z,101515.69
2023-01-05T11:27:20.910Z,101513.50
2023-01-05T11:30:07.146Z,101510.63
2023-01-05T11:32:33.658Z,101519.41
2023-01-05T11:35:00.809Z,101518.75
2023-01-05T11:37:28.583Z,101511.44
2023-01-05T11:40:02.679Z,101517.03
2023-01-05T11:42:32.133Z,101514.41
2023-01-05T11:45:00.610Z,101511.72
2023-01-05T11:47:41.348Z,101518.69
2023-01-05T11:50:12.869Z,101518.84
2023-01-05T11:52:44.008Z,101520.53
2023-01-05T11:55:19.538Z,101522.56
2023-01-05T11:57:52.760Z,101514.22
2023-01-05T12:00:25.370Z,101521.50
2023-01-05T12:02:54.650Z,101519.63
2023-01-05T12:05:28.563Z,101525.00
2023-01-05T12:08:01.199Z,101511.94
2023-01-05T12:10:27.559Z,101512.09
2023-01-05T12:13:06.287Z,101504.97
2023-01-05T12:15:32.604Z,101504.75
2023-01-05T12:17:59.213Z,101509.56
2023-01-05T12:20:25.504Z,101508.53
2023-01-05T12:23:14.071Z,101508.78
2023-01-05T12:25:40.523Z,101511.84
2023-01-05T12:28:35.762Z,101524.63
2023-01-05T12:34:27.638Z,101521.59
2023-01-05T12:37:19.299Z,101511.50
2023-01-05T12:40:04.708Z,101521.00
2023-01-05T12:42:48.259Z,101520.88
2023-01-05T12:45:34.509Z,101519.72
2023-01-05T12:48:05.766Z,101519.06
2023-01-05T12:50:35.657Z,101520.09
2023-01-05T12:53:08.174Z,101512.66
2023-01-05T12:55:39.095Z,101513.69
2023-01-05T12:58:10.188Z,101515.41
2023-01-05T13:00:37.670Z,101518.78
2023-01-05T13:03:10.565Z,101520.16
2023-01-05T13:05:55.275Z,101513.69
2023-01-05T13:08:29.423Z,101520.31
2023-01-05T13:11:04.477Z,101524.72
2023-01-05T13:13:34.555Z,101511.94
2023-01-05T13:16:06.423Z,101519.19
2023-01-05T13:18:35.615Z,101519.31
2023-01-05T13:21:06.867Z,101511.50
2023-01-05T13:23:44.367Z,101509.06
2023-01-05T13:26:14.138Z,101516.56
2023-01-05T13:28:40.591Z,101518.44
2023-01-05T13:31:28.451Z,101514.38
2023-01-05T13:33:55.438Z,101510.13
2023-01-05T13:36:37.253Z,101514.94
2023-01-05T13:39:13.333Z,101511.94
2023-01-05T13:41:50.297Z,101522.81
2023-01-05T13:44:25.027Z,101520.78
2023-01-05T13:46:51.415Z,101526.19
2023-01-05T13:49:20.930Z,101523.50
2023-01-05T13:52:00.850Z,101518.75
2023-01-05T13:54:32.988Z,101525.88
2023-01-05T13:57:13.766Z,101528.94
2023-01-05T13:59:52.324Z,101529.97
2023-01-05T14:02:37.419Z,101536.78
2023-01-05T14:05:15.125Z,101534.00
2023-01-05T14:07:41.820Z,101527.53
2023-01-05T14:10:28.553Z,101525.50
2023-01-05T14:12:55.509Z,101531.47
2023-01-05T14:15:37.510Z,101530.09
2023-01-05T14:18:05.077Z,101532.09
2023-01-05T14:20:49.299Z,101537.41
2023-01-05T14:23:30.088Z,101539.94
2023-01-05T14:25:57.192Z,101530.59
2023-01-05T14:28:26.509Z,101539.13
2023-01-05T14:31:18.725Z,101535.84
2023-01-05T14:33:57.415Z,101529.78
2023-01-05T14:36:42.090Z,101535.38
2023-01-05T14:39:17.464Z,101536.41
2023-01-05T14:41:45.052Z,101538.09
2023-01-05T14:44:19.855Z,101540.28
2023-01-05T14:46:56.095Z,101543.53
2023-01-05T14:49:26.159Z,101540.97
2023-01-05T14:51:53.947Z,101544.72
2023-01-05T14:54:34.797Z,101546.59
2023-01-05T14:57:19.816Z,101553.72
2023-01-05T14:59:47.059Z,101559.47
2023-01-05T15:02:17.548Z,101559.13
2023-01-05T15:04:44.169Z,101548.28
2023-01-05T15:07:26.327Z,101564.38
2023-01-05T15:10:10.004Z,101556.41
2023-01-05T15:12:48.308Z,101557.06
2023-01-05T15:15:34.531Z,101550.31
2023-01-05T15:18:04.256Z,101553.69
2023-01-05T15:20:49.757Z,101560.47
2023-01-05T15:23:16.109Z,101553.34
2023-01-05T15:25:49.424Z,101555.38
2023-01-05T15:28:30.367Z,101556.59
2023-01-05T15:31:10.753Z,101562.38
2023-01-05T15:33:41.390Z,101551.69
2023-01-05T15:36:14.908Z,101554.41
2023-01-05T15:38:46.289Z,101556.94
2023-01-05T15:41:14.330Z,101552.72
2023-01-05T15:43:42.414Z,101550.84
2023-01-05T15:46:10.003Z,101548.13
2023-01-05T15:48:44.174Z,101544.06
2023-01-05T15:51:12.057Z,101539.81
2023-01-05T15:53:44.158Z,101543.56
2023-01-05T15:56:33.830Z,101546.44
2023-01-05T15:59:00.519Z,101542.22
2023-01-05T16:01:28.493Z,101550.72
2023-01-05T16:04:07.972Z,101554.81
2023-01-05T16:06:39.302Z,101553.78
2023-01-05T16:09:29.030Z,101554.13
2023-01-05T16:11:58.715Z,101557.69
2023-01-05T16:14:45.043Z,101555.88
2023-01-05T16:17:16.688Z,101551.16
2023-01-05T16:20:06.204Z,101549.81
2023-01-05T16:22:39.968Z,101561.34
2023-01-05T16:25:15.236Z,101547.28
2023-01-05T16:27:44.243Z,101552.03
2023-01-05T16:30:17.018Z,101550.69
2023-01-05T16:32:43.475Z,101545.78
2023-01-05T16:35:20.186Z,101547.78
2023-01-05T16:38:01.533Z,101553.06
2023-01-05T16:40:27.978Z,101543.75
2023-01-05T16:42:56.466Z,101548.50
2023-01-05T16:45:24.119Z,101541.22
2023-01-05T16:47:52.419Z,101549.34
2023-01-05T16:50:19.428Z,101549.50
2023-01-05T16:53:06.408Z,101553.41
2023-01-05T16:55:35.495Z,101548.50
2023-01-05T16:58:02.910Z,101549.16
2023-01-05T17:00:33.294Z,101546.78
2023-01-05T17:03:22.578Z,101550.53
2023-01-05T17:05:51.946Z,101548.34
2023-01-05T17:08:23.144Z,101544.59
2023-01-05T17:10:49.693Z,101538.84
2023-01-05T17:13:22.038Z,101537.50
2023-01-05T17:15:49.096Z,101534.97
2023-01-05T17:20:55.046Z,101533.59
2023-01-05T17:23:27.250Z,101537.00
2023-01-05T17:25:54.545Z,101532.25
2023-01-05T17:28:24.452Z,101522.59
2023-01-05T17:30:52.394Z,101522.94
2023-01-05T17:33:18.922Z,101517.03
2023-01-05T17:38:17.908Z,101510.75
2023-01-05T17:40:44.384Z,101517.91
2023-01-05T17:43:10.770Z,101511.28
2023-01-05T17:45:38.594Z,101516.00
2023-01-05T17:48:05.052Z,101514.50
2023-01-05T17:53:04.421Z,101512.16
2023-01-05T17:55:31.382Z,101508.59
2023-01-05T17:57:57.873Z,101498.44
2023-01-05T18:00:25.556Z,101498.44
2023-01-05T18:02:52.584Z,101497.59
2023-01-05T18:05:19.258Z,101489.94
2023-01-05T18:07:46.009Z,101494.50
2023-01-05T18:10:16.886Z,101503.88
2023-01-05T18:12:43.498Z,101503.53
2023-01-05T18:15:10.655Z,101504.34
2023-01-05T18:20:09.089Z,101498.06
2023-01-05T18:22:36.964Z,101494.53
2023-01-05T18:25:03.622Z,101490.66
2023-01-05T18:27:35.244Z,101496.75
2023-01-05T18:30:02.305Z,101494.19
2023-01-05T18:35:01.098Z,101485.25
2023-01-05T18:37:29.570Z,101481.66
2023-01-05T18:39:56.026Z,101488.09
2023-01-05T18:42:22.615Z,101481.34
2023-01-05T18:44:49.315Z,101487.97
2023-01-05T18:47:16.041Z,101482.88
2023-01-05T18:49:42.414Z,101480.34
2023-01-05T18:52:08.794Z,101477.44
2023-01-05T18:54:35.097Z,101485.38
2023-01-05T18:57:01.575Z,101473.34
2023-01-05T18:59:28.047Z,101478.44
2023-01-05T19:01:54.483Z,101475.38
2023-01-05T19:04:21.177Z,101472.34
2023-01-05T19:06:47.544Z,101474.03
2023-01-05T19:09:14.178Z,101472.19
2023-01-05T19:11:43.995Z,101471.00
2023-01-05T19:14:10.399Z,101475.38
2023-01-05T19:16:38.541Z,101472.84
2023-01-05T19:19:09.155Z,101479.47
2023-01-05T19:21:36.854Z,101470.31
2023-01-05T19:24:04.217Z,101477.25
2023-01-05T19:26:31.596Z,101478.78
2023-01-05T19:28:58.676Z,101469.13
2023-01-05T19:31:25.195Z,101469.97
2023-01-05T19:33:53.876Z,101467.09
2023-01-05T19:36:22.609Z,101465.41
2023-01-05T19:38:49.421Z,101467.94
2023-01-05T19:41:17.022Z,101456.47
2023-01-05T19:43:46.481Z,101452.22
2023-01-05T19:46:19.288Z,101463.75
2023-01-05T19:48:46.221Z,101466.31
2023-01-05T19:51:17.437Z,101462.41
2023-01-05T19:53:44.739Z,101461.88
2023-01-05T19:56:15.056Z,101455.44
2023-01-05T19:58:42.252Z,101458.47
2023-01-05T20:01:14.127Z,101454.75
2023-01-05T20:03:41.307Z,101456.47
2023-01-05T20:06:09.002Z,101457.28
2023-01-05T20:08:36.128Z,101451.03
2023-01-05T20:11:09.721Z,101459.00
2023-01-05T20:13:36.188Z,101450.88
2023-01-05T20:16:04.368Z,101455.47
2023-01-05T20:18:30.817Z,101439.75
2023-01-05T20:21:01.273Z,101457.50
2023-01-05T20:23:38.537Z,101461.72
2023-01-05T20:26:09.958Z,101462.22
2023-01-05T20:28:36.602Z,101452.41
2023-01-05T20:31:03.678Z,101460.53
2023-01-05T20:33:30.480Z,101458.81
2023-01-05T20:35:56.878Z,101451.91
2023-01-05T20:38:28.301Z,101451.03
2023-01-05T20:40:54.716Z,101447.50
2023-01-05T20:43:21.086Z,101451.03
2023-01-05T20:45:47.443Z,101449.19
2023-01-05T20:48:13.809Z,101457.50
2023-01-05T20:50:40.308Z,101452.75
2023-01-05T20:53:06.663Z,101452.41
2023-01-05T20:55:36.850Z,101453.25
2023-01-05T20:58:03.290Z,101460.72
2023-01-05T21:00:29.691Z,101463.41
2023-01-05T21:02:56.096Z,101454.09
2023-01-05T21:05:22.526Z,101448.69
2023-01-05T21:07:48.927Z,101446.66
2023-01-05T21:10:15.478Z,101440.91
2023-01-05T21:12:41.863Z,101440.91
2023-01-05T21:15:08.634Z,101440.22
2023-01-05T21:17:34.969Z,101442.44
2023-01-05T21:20:02.619Z,101439.91
2023-01-05T21:22:28.963Z,101437.84
2023-01-05T21:24:55.328Z,101440.56
2023-01-05T21:27:21.707Z,101444.97
2023-01-05T21:29:48.689Z,101443.28
2023-01-05T21:32:15.153Z,101439.06
2023-01-05T21:34:41.488Z,101441.22
2023-01-05T21:37:07.827Z,101436.47
2023-01-05T21:39:34.407Z,101430.56
2023-01-05T21:42:19.456Z,101432.25
2023-01-05T21:44:45.825Z,101429.38
2023-01-05T21:47:12.864Z,101439.34
2023-01-05T21:49:39.299Z,101433.25
2023-01-05T21:52:24.623Z,101432.44
2023-01-05T21:55:09.669Z,101425.13
2023-01-05T21:57:36.177Z,101420.22
2023-01-05T22:00:02.506Z,101422.25
2023-01-05T22:02:28.825Z,101421.44
2023-01-05T22:04:55.179Z,101421.91
2023-01-05T22:07:21.607Z,101423.28
2023-01-05T22:09:47.983Z,101414.97
2023-01-05T22:12:14.339Z,101410.44
2023-01-05T22:14:40.792Z,101414.81
2023-01-05T22:17:08.125Z,101410.44
2023-01-05T22:19:34.785Z,101399.75
2023-01-05T22:22:01.190Z,101405.00
2023-01-05T22:24:27.555Z,101408.38
2023-01-05T22:26:53.920Z,101400.59
2023-01-05T22:29:20.422Z,101402.31
2023-01-05T22:31:46.965Z,101404.66
2023-01-05T22:34:13.465Z,101406.34
2023-01-05T22:36:39.927Z,101404.97
2023-01-05T22:39:06.341Z,101405.31
2023-01-05T22:41:32.718Z,101413.25
2023-01-05T22:43:59.374Z,101429.16
2023-01-05T22:46:27.294Z,101414.13
2023-01-05T22:48:54.364Z,101415.50
2023-01-05T22:51:29.913Z,101416.16
2023-01-05T22:53:57.059Z,101417.00
2023-01-05T22:56:24.596Z,101418.69
2023-01-05T22:58:51.359Z,101407.66
2023-01-05T23:01:25.293Z,101402.09
2023-01-05T23:03:52.499Z,101404.97
2023-01-05T23:06:19.176Z,101402.94
2023-01-05T23:08:45.856Z,101409.34
2023-01-05T23:11:13.887Z,101408.81
2023-01-05T23:13:40.364Z,101405.28
2023-01-05T23:16:07.258Z,101406.66
2023-01-05T23:18:37.536Z,101410.03
2023-01-05T23:21:05.246Z,101419.00
2023-01-05T23:23:32.077Z,101407.66
2023-01-05T23:25:58.401Z,101408.69
2023-01-05T23:28:25.588Z,101412.44
2023-01-05T23:30:53.049Z,101405.31
2023-01-05T23:33:20.566Z,101404.50
2023-01-05T23:35:47.248Z,101396.53
2023-01-05T23:38:14.024Z,101398.75
2023-01-05T23:40:44.499Z,101395.16
2023-01-05T23:43:11.619Z,101394.81
2023-01-05T23:45:38.429Z,101389.41
2023-01-05T23:48:04.841Z,101387.72
2023-01-05T23:50:31.194Z,101380.63
2023-01-05T23:52:58.547Z,101383.16
2023-01-05T23:55:25.238Z,101372.81
2023-01-05T23:57:51.639Z,101381.78
